Accedi per prenotare

Caricamento...

Situazione Metar e Taf aeroporto Pisa - Effemeridi Aeroporto Lucca

[Source: ADDS]
METAR
LIRP 200215Z 07002KT 9999 FEW035 BKN040 07/05 Q1023 NOSIG =
LIRP 192300Z 2000/2024 11005KT 9999 SCT030 TEMPO 2000/2006 5000 BR BECMG 2010/2013 30005KT CAVOK
TAF
LIRP 192300Z 2000/2024 11005KT 9999 SCT030 TEMPO 2000/2006 5000 BR BECMG 2010/2013 30005KT CAVOK =
SR / SS: 06:10 / 16:57 UTC (Effemeridi LIQL 2019-02-20)